Time;durP1;ratioP1;P1;durP2;ratioP2;P2;SDS_P1;SDS_P2;PMS_P1;PMS_P2;Temp;Humidity;BMP_temperature;BMP_pressure;BME280_temperature;BME280_humidity;BME280_pressure;Samples;Min_cycle;Max_cycle;Signal;HPM_P1;HPM_P2
2023/01/26 00:01:57;;;;;;;1999.90;999.90;;;;;;;-0.03;100.00;94969.22;5064997;28;20178;-69
2023/01/26 00:04:23;;;;;;;1999.90;999.90;;;;;;;-0.08;100.00;94979.44;5064886;28;20246;-68
2023/01/26 00:06:49;;;;;;;1999.90;999.90;;;;;;;-0.06;100.00;94971.84;5064812;28;20173;-68
2023/01/26 00:09:14;;;;;;;1999.90;999.90;;;;;;;-0.10;100.00;94981.72;5064777;28;20368;-68
2023/01/26 00:11:40;;;;;;;1999.90;999.90;;;;;;;-0.12;100.00;94983.94;5065314;28;20174;-68
2023/01/26 00:14:05;;;;;;;1999.90;999.90;;;;;;;-0.15;100.00;94976.59;5065216;28;20463;-68
2023/01/26 00:16:31;;;;;;;1999.90;999.90;;;;;;;-0.21;100.00;94972.63;5064787;28;20172;-68
2023/01/26 00:18:56;;;;;;;1999.90;999.90;;;;;;;-0.22;100.00;94974.50;5064508;28;20195;-68
2023/01/26 00:21:23;;;;;;;1999.90;999.90;;;;;;;-0.17;100.00;94970.81;5065185;28;20167;-68
2023/01/26 00:23:50;;;;;;;1999.90;999.90;;;;;;;-0.16;100.00;94966.97;5065045;28;20165;-68
2023/01/26 00:26:19;;;;;;;1999.90;999.90;;;;;;;-0.16;100.00;94975.03;5064894;28;20172;-68
2023/01/26 00:28:46;;;;;;;1999.90;999.90;;;;;;;-0.15;100.00;94973.91;5064341;28;20175;-69
2023/01/26 00:31:17;;;;;;;1999.90;999.90;;;;;;;-0.15;100.00;94971.22;5064442;28;20209;-68
2023/01/26 00:33:42;;;;;;;1999.90;999.90;;;;;;;-0.13;100.00;94985.88;5064617;28;20173;-68
2023/01/26 00:36:08;;;;;;;1999.90;999.90;;;;;;;-0.11;100.00;94999.69;5064195;28;20176;-68
2023/01/26 00:38:33;;;;;;;1999.90;999.90;;;;;;;-0.07;100.00;94997.88;5064090;28;20196;-67
2023/01/26 00:40:59;;;;;;;1999.90;999.90;;;;;;;-0.07;100.00;95005.16;5064755;28;20179;-68
2023/01/26 00:43:24;;;;;;;1999.90;999.90;;;;;;;0.01;100.00;95014.94;5064444;28;20173;-68
2023/01/26 00:45:49;;;;;;;1999.90;999.90;;;;;;;0.10;100.00;95017.47;5064168;28;20198;-67
2023/01/26 00:48:15;;;;;;;1999.90;999.90;;;;;;;-0.02;100.00;95031.72;5063461;28;20180;-68
2023/01/26 00:50:40;;;;;;;1999.90;999.90;;;;;;;-0.09;100.00;95043.06;5064038;28;20221;-67
2023/01/26 00:53:06;;;;;;;1999.90;999.90;;;;;;;-0.15;100.00;95060.53;5064319;28;20173;-68
2023/01/26 00:55:31;;;;;;;1999.90;999.90;;;;;;;-0.21;100.00;95061.13;5064817;28;20185;-68
2023/01/26 00:58:01;;;;;;;1999.90;999.90;;;;;;;-0.15;100.00;95073.16;5064385;28;20178;-67
2023/01/26 01:00:27;;;;;;;1999.90;999.90;;;;;;;-0.11;100.00;95063.28;5063879;28;20203;-68
2023/01/26 01:02:55;;;;;;;1999.90;999.90;;;;;;;-0.03;100.00;95073.09;5064424;28;20243;-68
2023/01/26 01:05:21;;;;;;;1999.90;999.90;;;;;;;-0.01;100.00;95071.63;5064018;28;20173;-68
2023/01/26 01:07:46;;;;;;;1999.90;999.90;;;;;;;0.01;100.00;95079.34;5064330;28;20175;-69
2023/01/26 01:10:12;;;;;;;1999.90;999.90;;;;;;;-0.05;100.00;95080.72;5063639;28;20239;-68
2023/01/26 01:12:37;;;;;;;1999.90;999.90;;;;;;;-0.04;100.00;95082.25;5063856;28;20216;-68
2023/01/26 01:15:03;;;;;;;1999.90;999.90;;;;;;;-0.18;100.00;95095.31;5063946;28;20235;-69
2023/01/26 01:17:28;;;;;;;1999.90;999.90;;;;;;;-0.22;100.00;95091.72;5063720;28;20176;-68
2023/01/26 01:19:54;;;;;;;1999.90;999.90;;;;;;;-0.23;100.00;95101.69;5064027;28;20211;-68
2023/01/26 01:22:19;;;;;;;1999.90;999.90;;;;;;;-0.29;100.00;95102.28;5063781;28;20192;-68
2023/01/26 01:24:44;;;;;;;1999.90;999.90;;;;;;;-0.38;100.00;95109.69;5063922;28;20253;-70
2023/01/26 01:27:10;;;;;;;1999.90;999.90;;;;;;;-0.31;100.00;95109.88;5063585;28;20175;-69
2023/01/26 01:29:35;;;;;;;1999.90;999.90;;;;;;;-0.30;100.00;95106.06;5064179;28;20206;-66
2023/01/26 01:32:01;;;;;;;1999.90;999.90;;;;;;;-0.23;100.00;95106.28;5063537;28;20191;-67
2023/01/26 01:34:26;;;;;;;1999.90;999.90;;;;;;;-0.24;100.00;95110.09;5063658;28;20179;-67
2023/01/26 01:36:51;;;;;;;1999.90;999.90;;;;;;;-0.23;100.00;95103.59;5064007;28;20188;-67
2023/01/26 01:39:17;;;;;;;1999.90;999.90;;;;;;;-0.21;100.00;95109.41;5064029;28;20239;-67
2023/01/26 01:41:42;;;;;;;1999.90;999.90;;;;;;;-0.25;100.00;95109.28;5063827;28;20217;-67
2023/01/26 01:44:22;;;;;;;1999.90;999.90;;;;;;;-0.18;100.00;95108.72;5063973;28;20176;-68
2023/01/26 01:46:59;;;;;;;1999.90;999.90;;;;;;;-0.18;100.00;95108.72;5063421;28;20172;-69
2023/01/26 01:49:46;;;;;;;1999.90;999.90;;;;;;;-0.20;100.00;95116.31;5066560;28;20222;-69
2023/01/26 01:52:16;;;;;;;1999.90;999.90;;;;;;;-0.24;100.00;95115.44;5067290;28;20249;-67
2023/01/26 01:54:53;;;;;;;1999.90;999.90;;;;;;;-0.25;100.00;95120.03;5067322;28;20172;-67
2023/01/26 01:57:30;;;;;;;1999.90;999.90;;;;;;;-0.28;100.00;95125.31;5067286;28;20206;-67
2023/01/26 02:00:02;;;;;;;1999.90;999.90;;;;;;;-0.29;100.00;95129.13;5069771;28;20224;-68
2023/01/26 02:02:28;;;;;;;1999.90;999.90;;;;;;;-0.35;100.00;95125.09;5071148;28;20192;-69
2023/01/26 02:04:59;;;;;;;1999.90;999.90;;;;;;;-0.38;100.00;95123.09;5070577;28;20167;-69
2023/01/26 02:07:25;;;;;;;1999.90;999.90;;;;;;;-0.44;100.00;95119.09;5070275;28;20199;-70
2023/01/26 02:12:35;;;;;;;1999.90;999.90;;;;;;;-0.23;100.00;95100.91;5088159;28;20168;-67
2023/01/26 02:15:02;;;;;;;1999.90;999.90;;;;;;;-0.20;100.00;95106.38;5070342;28;20166;-69
2023/01/26 02:17:28;;;;;;;1999.90;999.90;;;;;;;-0.25;100.00;95111.97;5070771;28;20240;-69
2023/01/26 02:20:10;;;;;;;1999.90;999.90;;;;;;;-0.38;100.00;95104.31;5070113;28;20321;-69
2023/01/26 02:23:01;;;;;;;1999.90;999.90;;;;;;;-0.45;100.00;95099.56;5070752;28;20165;-68
2023/01/26 02:25:39;;;;;;;1999.90;999.90;;;;;;;-0.41;100.00;95094.28;5070420;28;20171;-69
2023/01/26 02:28:05;;;;;;;1999.90;999.90;;;;;;;-0.40;100.00;95080.53;5070276;28;20161;-67
2023/01/26 02:30:31;;;;;;;1999.90;999.90;;;;;;;-0.45;100.00;95071.94;5069973;28;20180;-68
2023/01/26 02:32:57;;;;;;;1999.90;999.90;;;;;;;-0.37;100.00;95062.97;5069928;28;20170;-69
2023/01/26 02:35:22;;;;;;;1999.90;999.90;;;;;;;-0.38;100.00;95058.75;5070222;28;20184;-68
2023/01/26 02:37:48;;;;;;;1999.90;999.90;;;;;;;-0.43;100.00;95053.63;5069959;28;20239;-68
2023/01/26 02:40:52;;;;;;;1999.90;999.90;;;;;;;-0.33;100.00;95042.41;5069863;28;20229;-66
2023/01/26 02:43:18;;;;;;;1999.90;999.90;;;;;;;-0.34;100.00;95035.47;5069762;28;20177;-67
2023/01/26 02:45:43;;;;;;;1999.90;999.90;;;;;;;-0.33;100.00;95035.13;5070368;28;20174;-67
2023/01/26 02:48:09;;;;;;;1999.90;999.90;;;;;;;-0.37;100.00;95036.16;5069572;28;20175;-68
2023/01/26 02:50:34;;;;;;;1999.90;999.90;;;;;;;-0.35;100.00;95033.94;5066184;28;20251;-67
2023/01/26 02:53:01;;;;;;;1999.90;999.90;;;;;;;-0.44;100.00;95034.06;5066624;28;20199;-68
2023/01/26 02:55:29;;;;;;;1999.90;999.90;;;;;;;-0.37;100.00;95020.06;5066290;28;20176;-66
2023/01/26 02:58:03;;;;;;;1999.90;999.90;;;;;;;-0.39;100.00;95025.00;5066848;28;20217;-64
2023/01/26 03:00:31;;;;;;;1999.90;999.90;;;;;;;-0.38;100.00;95016.63;5066515;28;20194;-65
2023/01/26 03:02:59;;;;;;;1999.90;999.90;;;;;;;-0.39;100.00;95016.97;5066101;28;20179;-68
2023/01/26 03:05:27;;;;;;;1999.90;999.90;;;;;;;-0.44;100.00;95019.88;5065955;28;20191;-70
2023/01/26 03:07:52;;;;;;;1999.90;999.90;;;;;;;-0.39;100.00;95006.25;5066264;28;20172;-68
2023/01/26 03:10:18;;;;;;;1999.90;999.90;;;;;;;-0.41;100.00;95003.91;5065768;28;20237;-68
2023/01/26 03:12:44;;;;;;;1999.90;999.90;;;;;;;-0.36;100.00;95002.88;5065926;28;20178;-68
2023/01/26 03:27:25;;;;;;;1999.90;999.90;;;;;;;-0.45;100.00;95008.38;5066783;28;20190;-72
2023/01/26 03:29:25;;;;;;;1999.90;999.90;;;;;;;-0.55;100.00;95013.44;5066705;28;20182;-71
2023/01/26 03:31:51;;;;;;;1999.90;999.90;;;;;;;-0.55;100.00;95013.44;5066027;28;20166;-72
2023/01/26 03:34:17;;;;;;;1999.90;999.90;;;;;;;-0.47;100.00;95009.88;5065530;28;20163;-70
2023/01/26 03:36:42;;;;;;;1999.90;999.90;;;;;;;-0.47;100.00;95009.88;5065480;28;20174;-69
2023/01/26 03:39:07;;;;;;;1999.90;999.90;;;;;;;-0.45;100.00;95010.28;5065347;28;20195;-67
2023/01/26 03:58:00;;;;;;;1999.90;999.90;;;;;;;-0.34;100.00;95016.72;5085855;28;20157;-70
2023/01/26 04:00:25;;;;;;;1999.90;999.90;;;;;;;-0.30;100.00;95014.91;5068348;28;20201;-71
2023/01/26 04:08:22;;;;;;;1999.90;999.90;;;;;;;-0.39;100.00;95027.69;5086073;28;20149;-70
2023/01/26 04:10:50;;;;;;;1999.90;999.90;;;;;;;-0.42;100.00;95033.72;5068264;28;20166;-71
2023/01/26 04:21:34;;;;;;;1999.90;999.90;;;;;;;-0.24;100.00;95024.25;5085479;28;20277;-70
2023/01/26 04:24:01;;;;;;;1999.90;999.90;;;;;;;-0.22;100.00;95028.16;5067801;28;20169;-70
2023/01/26 04:26:35;;;;;;;1999.90;999.90;;;;;;;-0.22;100.00;95032.72;5068348;28;20247;-68
2023/01/26 04:29:06;;;;;;;1999.90;999.90;;;;;;;-0.26;100.00;95037.22;5068212;28;20171;-68
2023/01/26 04:31:32;;;;;;;1999.90;999.90;;;;;;;-0.28;100.00;95044.84;5068439;28;20167;-69
2023/01/26 04:33:58;;;;;;;1999.90;999.90;;;;;;;-0.22;100.00;95043.44;5067581;28;20195;-71
2023/01/26 04:36:24;;;;;;;1999.90;999.90;;;;;;;-0.28;100.00;95052.91;5067637;28;20167;-71
2023/01/26 04:38:49;;;;;;;1999.90;999.90;;;;;;;-0.32;100.00;95057.38;5067873;28;20207;-72
2023/01/26 04:41:15;;;;;;;1999.90;999.90;;;;;;;-0.36;100.00;95067.25;5068043;28;20243;-71
2023/01/26 04:43:40;;;;;;;1999.90;999.90;;;;;;;-0.47;100.00;95068.84;5067471;28;20171;-70
2023/01/26 04:46:07;;;;;;;1999.90;999.90;;;;;;;-0.46;100.00;95073.06;5067670;28;20202;-70
2023/01/26 04:48:33;;;;;;;1999.90;999.90;;;;;;;-0.38;100.00;95066.78;5067911;28;20201;-70
2023/01/26 04:51:02;;;;;;;1999.90;999.90;;;;;;;-0.33;100.00;95069.22;5067185;28;20408;-69
2023/01/26 04:53:28;;;;;;;1999.90;999.90;;;;;;;-0.34;100.00;95067.66;5067371;28;20226;-70
2023/01/26 04:55:54;;;;;;;1999.90;999.90;;;;;;;-0.28;100.00;95077.78;5067684;28;20244;-70
2023/01/26 04:58:20;;;;;;;1999.90;999.90;;;;;;;-0.21;100.00;95063.81;5067770;28;20179;-69
2023/01/26 05:00:53;;;;;;;1999.90;999.90;;;;;;;-0.19;100.00;95070.38;5067885;28;20182;-69
2023/01/26 05:03:18;;;;;;;1999.90;999.90;;;;;;;-0.19;100.00;95064.22;5067306;28;20236;-68
2023/01/26 05:05:46;;;;;;;1999.90;999.90;;;;;;;-0.21;100.00;95066.50;5067258;28;20174;-68
2023/01/26 05:08:12;;;;;;;1999.90;999.90;;;;;;;-0.25;100.00;95071.00;5067736;28;20174;-68
2023/01/26 05:10:37;;;;;;;1999.90;999.90;;;;;;;-0.32;100.00;95065.44;5067476;28;20249;-68
2023/01/26 05:13:02;;;;;;;1999.90;999.90;;;;;;;-0.30;100.00;95068.53;5067576;28;20171;-69
2023/01/26 05:15:28;;;;;;;1999.90;999.90;;;;;;;-0.24;100.00;95072.53;5067210;28;20238;-68
2023/01/26 05:17:53;;;;;;;1999.90;999.90;;;;;;;-0.31;100.00;95072.34;5066979;28;20218;-68
2023/01/26 05:20:18;;;;;;;1999.90;999.90;;;;;;;-0.39;100.00;95084.00;5066906;28;20228;-70
2023/01/26 05:22:44;;;;;;;1999.90;999.90;;;;;;;-0.32;100.00;95086.88;5067535;28;20200;-70
2023/01/26 05:25:09;;;;;;;1999.90;999.90;;;;;;;-0.26;100.00;95085.50;5066570;28;20176;-71
2023/01/26 05:27:35;;;;;;;1999.90;999.90;;;;;;;-0.22;100.00;95078.31;5067109;28;20217;-70
2023/01/26 05:30:00;;;;;;;1999.90;999.90;;;;;;;-0.20;100.00;95074.19;5066571;28;20176;-70
2023/01/26 05:32:27;;;;;;;1999.90;999.90;;;;;;;-0.17;100.00;95073.50;5066981;28;20177;-69
2023/01/26 05:34:52;;;;;;;1999.90;999.90;;;;;;;-0.25;100.00;95071.00;5069716;28;20247;-70
2023/01/26 05:37:18;;;;;;;1999.90;999.90;;;;;;;-0.16;100.00;95074.28;5071025;28;20190;-69
2023/01/26 05:39:43;;;;;;;1999.90;999.90;;;;;;;-0.11;100.00;95071.34;5071268;28;20225;-70
2023/01/26 05:42:12;;;;;;;1999.90;999.90;;;;;;;-0.08;100.00;95065.28;5070886;28;20197;-70
2023/01/26 05:44:38;;;;;;;1999.90;999.90;;;;;;;-0.03;100.00;95062.38;5070890;28;20176;-69
2023/01/26 05:47:04;;;;;;;1999.90;999.90;;;;;;;-0.14;100.00;95077.41;5071009;28;20168;-69
2023/01/26 05:49:30;;;;;;;1999.90;999.90;;;;;;;-0.13;100.00;95089.69;5070895;28;20246;-70
2023/01/26 05:51:55;;;;;;;1999.90;999.90;;;;;;;-0.13;100.00;95089.69;5071220;28;20172;-70
2023/01/26 05:54:21;;;;;;;1999.90;999.90;;;;;;;-0.13;100.00;95101.22;5070692;28;20171;-70
2023/01/26 05:56:46;;;;;;;1999.90;999.90;;;;;;;-0.20;100.00;95114.44;5071259;28;20202;-69
2023/01/26 05:59:12;;;;;;;1999.90;999.90;;;;;;;-0.24;100.00;95110.88;5070795;28;20200;-68
2023/01/26 06:01:38;;;;;;;1999.90;999.90;;;;;;;-0.21;100.00;95112.09;5070614;28;20178;-67
2023/01/26 06:04:03;;;;;;;1999.90;999.90;;;;;;;-0.16;100.00;95107.25;5070269;28;20174;-68
2023/01/26 06:06:29;;;;;;;1999.90;999.90;;;;;;;-0.15;100.00;95103.44;5070952;28;20173;-68
2023/01/26 06:08:54;;;;;;;1999.90;999.90;;;;;;;-0.13;100.00;95119.22;5070491;28;20186;-68
2023/01/26 06:11:19;;;;;;;1999.90;999.90;;;;;;;-0.12;100.00;95110.03;5070560;28;20169;-68
2023/01/26 06:13:45;;;;;;;1999.90;999.90;;;;;;;-0.11;100.00;95114.25;5070579;28;20176;-68
2023/01/26 06:16:10;;;;;;;1999.90;999.90;;;;;;;-0.11;100.00;95115.06;5070259;28;20207;-68
2023/01/26 06:18:35;;;;;;;1999.90;999.90;;;;;;;-0.12;100.00;95124.22;5070026;28;20197;-68
2023/01/26 06:21:01;;;;;;;1999.90;999.90;;;;;;;-0.18;100.00;95124.81;5070161;28;20200;-68
2023/01/26 06:23:26;;;;;;;1999.90;999.90;;;;;;;-0.23;100.00;95127.72;5070531;28;20184;-68
2023/01/26 06:25:52;;;;;;;1999.90;999.90;;;;;;;-0.27;100.00;95129.53;5070125;28;20187;-69
2023/01/26 06:28:19;;;;;;;1999.90;999.90;;;;;;;-0.27;100.00;95126.84;5070038;28;20177;-68
2023/01/26 06:30:44;;;;;;;1999.90;999.90;;;;;;;-0.29;100.00;95119.16;5070689;28;20176;-67
2023/01/26 06:33:10;;;;;;;1999.90;999.90;;;;;;;-0.38;100.00;95120.41;5069566;28;20402;-67
2023/01/26 06:35:35;;;;;;;1999.90;999.90;;;;;;;-0.42;100.00;95114.19;5070477;28;20178;-68
2023/01/26 06:38:00;;;;;;;1999.90;999.90;;;;;;;-0.48;100.00;95110.16;5069686;28;20171;-68
2023/01/26 06:40:26;;;;;;;1999.90;999.90;;;;;;;-0.53;100.00;95107.72;5069715;28;20195;-70
2023/01/26 06:42:51;;;;;;;1999.90;999.90;;;;;;;-0.61;100.00;95111.34;5069820;28;20172;-68
2023/01/26 06:45:19;;;;;;;1999.90;999.90;;;;;;;-0.45;100.00;95093.41;5070156;28;20180;-68
2023/01/26 06:47:45;;;;;;;1999.90;999.90;;;;;;;-0.56;100.00;95084.28;5069674;28;20289;-67
2023/01/26 06:50:11;;;;;;;1999.90;999.90;;;;;;;-0.51;100.00;95086.75;5069734;28;20242;-69
2023/01/26 06:52:40;;;;;;;1999.90;999.90;;;;;;;-0.60;100.00;95086.09;5069150;28;20175;-69
2023/01/26 06:55:27;;;;;;;1999.90;999.90;;;;;;;-0.67;100.00;95075.16;5070061;28;20229;-68
2023/01/26 06:57:52;;;;;;;1999.90;999.90;;;;;;;-0.58;100.00;95062.41;5069419;28;20175;-69
2023/01/26 07:00:18;;;;;;;1999.90;999.90;;;;;;;-0.53;100.00;95054.13;5069456;28;20227;-68
2023/01/26 07:02:43;;;;;;;1999.90;999.90;;;;;;;-0.68;100.00;95052.16;5069221;28;20176;-67
2023/01/26 07:05:09;;;;;;;1999.90;999.90;;;;;;;-0.61;100.00;95044.31;5069725;28;20267;-65
2023/01/26 07:07:34;;;;;;;1999.90;999.90;;;;;;;-0.45;100.00;95039.78;5069300;28;20171;-65
2023/01/26 07:09:59;;;;;;;1999.90;999.90;;;;;;;-0.35;100.00;95028.56;5069005;28;20170;-66
2023/01/26 07:12:25;;;;;;;1999.90;999.90;;;;;;;-0.27;100.00;95031.09;5069148;28;20202;-66
2023/01/26 07:14:50;;;;;;;1999.90;999.90;;;;;;;-0.23;100.00;95025.81;5068980;28;20178;-67
2023/01/26 07:17:16;;;;;;;1999.90;999.90;;;;;;;-0.18;100.00;95028.25;5069610;28;20175;-66
2023/01/26 07:19:41;;;;;;;1999.90;999.90;;;;;;;-0.13;100.00;95025.31;5068764;28;20256;-66
2023/01/26 07:22:07;;;;;;;1999.90;999.90;;;;;;;-0.17;100.00;95043.22;5068954;28;20203;-66
2023/01/26 07:24:32;;;;;;;1999.90;999.90;;;;;;;-0.13;100.00;95041.41;5068848;28;20171;-67
2023/01/26 07:26:58;;;;;;;1999.90;999.90;;;;;;;-0.11;100.00;95049.88;5068826;28;20282;-66
2023/01/26 07:29:23;;;;;;;1999.90;999.90;;;;;;;-0.15;100.00;95051.69;5068700;28;20195;-66
2023/01/26 07:31:48;;;;;;;1999.90;999.90;;;;;;;-0.14;100.00;95054.03;5068790;28;20171;-69
2023/01/26 07:34:14;;;;;;;1999.90;999.90;;;;;;;-0.19;100.00;95069.59;5068787;28;20171;-67
2023/01/26 07:36:39;;;;;;;1999.90;999.90;;;;;;;-0.17;100.00;95080.78;5068654;28;20194;-66
2023/01/26 07:39:05;;;;;;;1999.90;999.90;;;;;;;-0.17;100.00;95084.22;5068531;28;20279;-66
2023/01/26 07:41:31;;;;;;;1999.90;999.90;;;;;;;-0.14;100.00;95088.91;5068644;28;20205;-67
2023/01/26 07:43:56;;;;;;;1999.90;999.90;;;;;;;-0.16;100.00;95101.09;5068368;28;20163;-68
2023/01/26 07:46:22;;;;;;;1999.90;999.90;;;;;;;-0.22;100.00;95097.09;5069055;28;20168;-67
2023/01/26 07:48:47;;;;;;;1999.90;999.90;;;;;;;-0.22;100.00;95113.19;5069007;28;20178;-66
2023/01/26 07:51:13;;;;;;;1999.90;999.90;;;;;;;-0.14;100.00;95098.88;5068192;28;20253;-67
2023/01/26 07:53:38;;;;;;;1999.90;999.90;;;;;;;-0.21;100.00;95120.91;5068400;28;20173;-65
2023/01/26 07:56:08;;;;;;;1999.90;999.90;;;;;;;-0.12;100.00;95112.72;5068180;28;20175;-64
2023/01/26 07:58:34;;;;;;;1999.90;999.90;;;;;;;-0.06;100.00;95130.13;5068092;28;20179;-66
2023/01/26 08:01:04;;;;;;;1999.90;999.90;;;;;;;0.02;100.00;95129.19;5068719;28;20200;-66
2023/01/26 08:03:29;;;;;;;1999.90;999.90;;;;;;;0.05;100.00;95133.88;5068186;28;20174;-65
2023/01/26 08:05:55;;;;;;;1999.90;999.90;;;;;;;0.00;100.00;95147.56;5068918;28;20214;-67
2023/01/26 08:08:20;;;;;;;1999.90;999.90;;;;;;;-0.01;100.00;95159.38;5068701;28;20565;-65
2023/01/26 08:10:45;;;;;;;1999.90;999.90;;;;;;;-0.03;100.00;95161.66;5068413;28;20222;-66
2023/01/26 08:13:11;;;;;;;1999.90;999.90;;;;;;;-0.05;100.00;95169.25;5068194;28;20225;-66
2023/01/26 08:15:36;;;;;;;1999.90;999.90;;;;;;;-0.12;100.00;95180.56;5068528;28;20241;-66
2023/01/26 08:18:03;;;;;;;1999.90;999.90;;;;;;;-0.09;100.00;95187.16;5068035;28;20181;-67
2023/01/26 08:20:29;;;;;;;1999.90;999.90;;;;;;;0.05;100.00;95192.91;5067989;28;20218;-66
2023/01/26 08:22:55;;;;;;;1999.90;999.90;;;;;;;0.06;100.00;95197.16;5067805;28;20175;-68
2023/01/26 08:25:20;;;;;;;1999.90;999.90;;;;;;;0.10;100.00;95200.72;5067906;28;20222;-66
2023/01/26 08:27:45;;;;;;;1999.90;999.90;;;;;;;0.09;100.00;95201.84;5067755;28;20195;-66
2023/01/26 08:30:12;;;;;;;1999.90;999.90;;;;;;;-0.01;100.00;95210.38;5068409;28;20182;-66
2023/01/26 08:32:37;;;;;;;1999.90;999.90;;;;;;;-0.08;100.00;95216.31;5067698;28;20179;-65
2023/01/26 08:35:03;;;;;;;1999.90;999.90;;;;;;;-0.06;100.00;95222.13;5067946;28;20172;-66
2023/01/26 08:37:28;;;;;;;1999.90;999.90;;;;;;;-0.06;100.00;95234.78;5067569;28;20200;-67
2023/01/26 08:39:53;;;;;;;1999.90;999.90;;;;;;;-0.16;100.00;95235.22;5067718;28;20195;-67
2023/01/26 08:42:19;;;;;;;1999.90;999.90;;;;;;;-0.12;100.00;95241.47;5067592;28;20236;-67
2023/01/26 08:44:44;;;;;;;1999.90;999.90;;;;;;;-0.09;100.00;95246.19;5067482;28;20166;-66
2023/01/26 08:47:09;;;;;;;1999.90;999.90;;;;;;;-0.02;100.00;95241.00;5067537;28;20273;-66
2023/01/26 08:49:35;;;;;;;1999.90;999.90;;;;;;;0.12;100.00;95249.47;5064041;28;20221;-65
2023/01/26 08:52:00;;;;;;;1999.90;999.90;;;;;;;0.15;100.00;95246.13;5063939;28;20176;-66
2023/01/26 08:54:25;;;;;;;1999.90;999.90;;;;;;;0.18;100.00;95240.03;5064548;28;20471;-66
2023/01/26 08:56:52;;;;;;;1999.90;999.90;;;;;;;0.19;100.00;95249.69;5064324;28;20197;-67
2023/01/26 08:59:17;;;;;;;1999.90;999.90;;;;;;;0.12;100.00;95262.91;5063779;28;20264;-66
2023/01/26 09:01:42;;;;;;;1999.90;999.90;;;;;;;0.12;100.00;95252.16;5063824;28;20168;-66
2023/01/26 09:04:08;;;;;;;1999.90;999.90;;;;;;;0.10;100.00;95259.75;5064273;28;20166;-65
2023/01/26 09:06:33;;;;;;;1999.90;999.90;;;;;;;0.17;100.00;95268.00;5063894;28;20173;-66
2023/01/26 09:08:58;;;;;;;1999.90;999.90;;;;;;;0.23;100.00;95261.31;5062760;28;20177;-66
2023/01/26 09:11:24;;;;;;;1999.90;999.90;;;;;;;0.35;100.00;95260.44;5063781;28;20179;-68
2023/01/26 09:13:55;;;;;;;1999.90;999.90;;;;;;;0.41;100.00;95259.91;5063765;28;20176;-65
2023/01/26 09:16:22;;;;;;;1999.90;999.90;;;;;;;0.46;100.00;95267.69;5064581;28;20164;-66
2023/01/26 09:18:52;;;;;;;1999.90;999.90;;;;;;;0.53;100.00;95267.88;5063619;28;20216;-66
2023/01/26 09:21:19;;;;;;;1999.90;999.90;;;;;;;0.51;100.00;95267.44;5063875;28;20174;-66
2023/01/26 09:23:44;;;;;;;1999.90;999.90;;;;;;;0.56;100.00;95272.59;5063693;28;20173;-66
2023/01/26 09:26:09;;;;;;;1999.90;999.90;;;;;;;0.56;100.00;95274.47;5063829;28;20191;-63
2023/01/26 09:28:35;;;;;;;1999.90;999.90;;;;;;;0.50;100.00;95284.69;5063697;28;20171;-66
2023/01/26 09:31:05;;;;;;;1999.90;999.90;;;;;;;0.39;100.00;95299.72;5063665;28;20237;-66
2023/01/26 09:33:31;;;;;;;1999.90;999.90;;;;;;;0.37;100.00;95303.88;5063376;28;20173;-65
2023/01/26 09:36:03;;;;;;;1999.90;999.90;;;;;;;0.30;100.00;95303.66;5063975;28;20244;-67
2023/01/26 09:38:29;;;;;;;1999.90;999.90;;;;;;;0.23;100.00;95306.94;5064268;28;20167;-66
2023/01/26 09:41:10;;;;;;;1999.90;999.90;;;;;;;0.19;100.00;95311.41;5064079;28;20175;-67
2023/01/26 09:44:08;;;;;;;1999.90;999.90;;;;;;;0.17;100.00;95308.28;5064031;28;20496;-66
2023/01/26 09:46:55;;;;;;;1999.90;999.90;;;;;;;0.30;100.00;95304.44;5063536;28;20189;-66
2023/01/26 09:49:25;;;;;;;1999.90;999.90;;;;;;;0.29;100.00;95313.59;5066199;28;20168;-66
2023/01/26 09:51:55;;;;;;;1999.90;999.90;;;;;;;0.29;100.00;95308.25;5067017;28;20180;-66
2023/01/26 09:54:36;;;;;;;1999.90;999.90;;;;;;;0.26;100.00;95306.25;5067155;28;20198;-66
2023/01/26 09:57:12;;;;;;;1999.90;999.90;;;;;;;0.18;100.00;95292.97;5067218;28;20184;-67
2023/01/26 09:59:44;;;;;;;1999.90;999.90;;;;;;;0.22;100.00;95283.91;5067394;28;20209;-66
2023/01/26 10:02:10;;;;;;;1999.90;999.90;;;;;;;0.09;100.00;95282.34;5067075;28;20231;-65
2023/01/26 10:04:39;;;;;;;1999.90;999.90;;;;;;;0.26;100.00;95268.69;5067065;28;20175;-67
2023/01/26 10:07:08;;;;;;;1999.90;999.90;;;;;;;0.29;100.00;95273.34;5067122;28;20252;-66
2023/01/26 10:09:36;;;;;;;1999.90;999.90;;;;;;;0.19;100.00;95273.03;5066581;28;20257;-66
2023/01/26 10:12:07;;;;;;;1999.90;999.90;;;;;;;0.08;100.00;95267.38;5066596;28;20176;-65
2023/01/26 10:14:39;;;;;;;1999.90;999.90;;;;;;;0.13;100.00;95255.59;5066822;28;20165;-65
2023/01/26 10:17:11;;;;;;;1999.90;999.90;;;;;;;0.20;100.00;95259.28;5067076;28;20172;-65
2023/01/26 10:20:17;;;;;;;1999.90;999.90;;;;;;;0.46;100.00;95246.22;5050428;28;20224;-65
2023/01/26 10:22:46;;;;;;;1999.90;999.90;;;;;;;0.47;100.00;95255.06;5056430;28;20181;-65
2023/01/26 10:25:15;;;;;;;1999.90;999.90;;;;;;;0.49;100.00;95250.91;5070165;28;20177;-65
2023/01/26 10:27:41;;;;;;;1999.90;999.90;;;;;;;0.43;100.00;95246.88;5070570;28;20178;-64
2023/01/26 10:30:12;;;;;;;1999.90;999.90;;;;;;;0.47;100.00;95242.38;5069984;28;20165;-65
2023/01/26 10:32:40;;;;;;;1999.90;999.90;;;;;;;0.41;100.00;95243.78;5070649;28;20170;-65
2023/01/26 10:35:15;;;;;;;1999.90;999.90;;;;;;;0.51;100.00;95237.91;5069978;28;20167;-65
2023/01/26 10:37:40;;;;;;;1999.90;999.90;;;;;;;0.44;100.00;95239.63;5070240;28;20172;-65
2023/01/26 10:40:06;;;;;;;1999.90;999.90;;;;;;;0.24;100.00;95241.38;5069852;28;20227;-65
2023/01/26 10:42:34;;;;;;;1999.90;999.90;;;;;;;0.33;100.00;95242.03;5069686;28;20202;-66
2023/01/26 10:45:03;;;;;;;1999.90;999.90;;;;;;;0.35;100.00;95244.34;5070143;28;20175;-67
2023/01/26 10:47:28;;;;;;;1999.90;999.90;;;;;;;0.37;100.00;95242.91;5069696;28;20195;-65
2023/01/26 10:50:26;;;;;;;1999.90;999.90;;;;;;;0.43;100.00;95238.84;5069427;28;20222;-66
2023/01/26 10:53:01;;;;;;;1999.90;999.90;;;;;;;0.50;100.00;95230.97;5015543;28;20180;-67
2023/01/26 10:55:27;;;;;;;1999.90;999.90;;;;;;;0.62;100.00;95233.59;5069374;28;20226;-67
2023/01/26 10:57:53;;;;;;;1999.90;999.90;;;;;;;0.55;100.00;95233.44;5069494;28;20163;-65
2023/01/26 11:00:28;;;;;;;1999.90;999.90;;;;;;;0.55;100.00;95232.63;5069292;28;20267;-67
2023/01/26 11:03:01;;;;;;;1999.90;999.90;;;;;;;0.55;100.00;95233.44;5069368;28;20177;-66
2023/01/26 11:05:27;;;;;;;1999.90;999.90;;;;;;;0.47;100.00;95230.88;5069806;28;20169;-67
2023/01/26 11:08:01;;;;;;;1999.90;999.90;;;;;;;0.37;100.00;95226.78;5069263;28;20178;-65
2023/01/26 11:10:38;;;;;;;1999.90;999.90;;;;;;;0.41;100.00;95227.66;5069965;28;20198;-66
2023/01/26 11:13:19;;;;;;;1999.90;999.90;;;;;;;0.24;100.00;95227.94;5069012;28;20172;-65
2023/01/26 11:15:48;;;;;;;1999.90;999.90;;;;;;;0.35;100.00;95225.56;5069648;28;20191;-64
2023/01/26 11:18:41;;;;;;;1999.90;999.90;;;;;;;0.36;100.00;95225.22;5069127;28;20170;-66
2023/01/26 11:21:19;;;;;;;1999.90;999.90;;;;;;;0.36;100.00;95225.22;5068990;28;20263;-66
2023/01/26 11:24:08;;;;;;;1999.90;999.90;;;;;;;0.25;100.00;95218.78;5069432;28;20171;-65
2023/01/26 11:26:48;;;;;;;1999.90;999.90;;;;;;;0.32;100.00;95224.34;5069617;28;20168;-66
2023/01/26 11:29:32;;;;;;;1999.90;999.90;;;;;;;0.19;100.00;95220.16;5068921;28;20169;-65
2023/01/26 11:32:26;;;;;;;1999.90;999.90;;;;;;;0.20;100.00;95216.34;5067935;28;20167;-68
2023/01/26 11:34:54;;;;;;;1999.90;999.90;;;;;;;0.21;100.00;95212.53;5068861;28;20166;-66
2023/01/26 11:37:38;;;;;;;1999.90;999.90;;;;;;;0.13;100.00;95200.03;5068753;28;20167;-66
2023/01/26 11:40:39;;;;;;;1999.90;999.90;;;;;;;0.33;100.00;95182.97;5069472;28;20196;-67